This is the latest recevied weather packets stored in our database for station/object KL4TQ. If no packets are shown the sender has not sent any weather packets the latest 1 day(s).
| Time | Temp. | Humidity | Pressure | Rain* | Wind** | Luminosity | Snow |
|---|---|---|---|---|---|---|---|
| 1778118668 | 3.33° C | 50% | 857 hPa | 0 mm | - | 362 W/m² | - |
| 1778118369 | 3.33° C | 50% | 857 hPa | 0 mm | - | 407 W/m² | - |
| 1778117471 | 3.33° C | 51% | 857 hPa | 0 mm | - | 422 W/m² | - |
| 1778117168 | 3.33° C | 50% | 857 hPa | 0 mm | - | 309 W/m² | - |
| 1778116568 | 3.33° C | 50% | 857 hPa | 0 mm | - | 323 W/m² | - |
| 1778116269 | 3.33° C | 50% | 857 hPa | 0 mm | - | 343 W/m² | - |
| 1778115969 | 3.33° C | 49% | 857 hPa | 0 mm | - | 364 W/m² | - |
| 1778115369 | 3.33° C | 48% | 857 hPa | 0 mm | - | 404 W/m² | - |
| 1778115068 | 3.33° C | 48% | 857 hPa | 0 mm | - | 382 W/m² | - |
| 1778114769 | 3.89° C | 48% | 857 hPa | 0 mm | - | 378 W/m² | - |
| 1778114468 | 3.89° C | 47% | 857 hPa | 0 mm | - | 482 W/m² | - |
| 1778113870 | 3.89° C | 49% | 857 hPa | 0 mm | - | 526 W/m² | - |
| 1778113271 | 3.33° C | 48% | 857 hPa | 0 mm | - | 517 W/m² | - |
| 1778112668 | 3.89° C | 49% | 857 hPa | 0 mm | - | 451 W/m² | - |
| 1778111469 | 3.33° C | 47% | 857 hPa | 0 mm | - | 679 W/m² | - |
| 1778110869 | 3.89° C | 47% | 857 hPa | 0 mm | - | 499 W/m² | - |
| 1778108769 | 4.44° C | 49% | 857 hPa | 0 mm | - | 644 W/m² | - |
| 1778108468 | 3.89° C | 48% | 857 hPa | 0 mm | - | 767 W/m² | - |
| 1778106068 | 3.89° C | 53% | 857 hPa | 0 mm | - | 730 W/m² | - |
| 1778101870 | 2.22° C | 65% | 857 hPa | 0 mm | - | 625 W/m² | - |
| 1778100969 | 2.22° C | 68% | 857 hPa | 0 mm | - | 654 W/m² | - |
| 1778098569 | 1.67° C | 75% | 857 hPa | 0 mm | - | 575 W/m² | - |
| 1778097669 | 1.11° C | 78% | 857 hPa | 0 mm | - | 605 W/m² | - |
| 1778097069 | 1.11° C | 81% | 857 hPa | 0 mm | - | 336 W/m² | - |
| 1778096769 | 0.56° C | 81% | 857 hPa | 0 mm | - | 386 W/m² | - |
* Rain latest hour (hover to see other rain measurements)
** Current wind speed in m/s (hover to see current wind gust speed)